Time;durP1;ratioP1;P1;durP2;ratioP2;P2;SDS_P1;SDS_P2;PMS_P1;PMS_P2;Temp;Humidity;BMP_temperature;BMP_pressure;BME280_temperature;BME280_humidity;BME280_pressure;Samples;Min_cycle;Max_cycle;Signal;HPM_P1;HPM_P2
2021/04/06 00:00:23;;;;;;;12.50;2.13;;;2.60;99.90;;;;;;4904483;29;20235;-77
2021/04/06 00:03:11;;;;;;;13.20;2.60;;;2.60;99.90;;;;;;4910638;29;20228;-77
2021/04/06 00:06:00;;;;;;;11.97;2.33;;;2.60;99.90;;;;;;4900080;29;20263;-77
2021/04/06 00:08:47;;;;;;;13.97;2.77;;;2.60;99.90;;;;;;4904422;29;20284;-77
2021/04/06 00:11:34;;;;;;;16.97;3.70;;;2.60;99.90;;;;;;4906108;29;20817;-77
2021/04/06 00:14:20;;;;;;;18.97;3.47;;;2.60;99.90;;;;;;4911497;29;20291;-77
2021/04/06 00:17:09;;;;;;;8.80;2.37;;;2.70;99.90;;;;;;4910063;29;20256;-77
2021/04/06 00:19:58;;;;;;;13.37;3.00;;;2.70;99.90;;;;;;4912629;29;20228;-77
2021/04/06 00:22:44;;;;;;;13.93;2.93;;;2.70;99.90;;;;;;4913748;29;20288;-76
2021/04/06 00:25:31;;;;;;;13.97;3.53;;;2.70;99.90;;;;;;4914770;29;20231;-77
2021/04/06 00:28:23;;;;;;;22.90;4.07;;;2.80;99.90;;;;;;4909508;29;20744;-77
2021/04/06 00:31:09;;;;;;;17.73;3.37;;;2.80;99.90;;;;;;4910136;29;20215;-77
2021/04/06 00:33:56;;;;;;;19.00;3.67;;;2.80;99.90;;;;;;4911608;29;20220;-77
2021/04/06 00:36:43;;;;;;;18.63;3.77;;;2.80;99.90;;;;;;4904100;29;20236;-77
2021/04/06 00:39:29;;;;;;;20.73;3.90;;;2.80;99.90;;;;;;4910704;29;20232;-77
2021/04/06 00:42:17;;;;;;;14.27;2.97;;;2.90;99.90;;;;;;4911118;29;20223;-78
2021/04/06 00:45:09;;;;;;;13.83;3.20;;;2.90;99.90;;;;;;4912810;29;20207;-77
2021/04/06 00:47:59;;;;;;;11.43;2.63;;;2.90;99.90;;;;;;4900134;29;20349;-77
2021/04/06 00:51:04;;;;;;;13.97;3.07;;;3.00;99.90;;;;;;4913511;29;20638;-78
2021/04/06 00:54:00;;;;;;;14.63;3.40;;;3.00;99.90;;;;;;4911466;29;20220;-77
2021/04/06 00:56:46;;;;;;;24.47;3.57;;;3.00;99.90;;;;;;4903849;29;20268;-77
2021/04/06 00:59:32;;;;;;;15.83;2.70;;;3.00;99.90;;;;;;4896792;29;20231;-77
2021/04/06 01:02:18;;;;;;;19.43;3.17;;;3.00;99.90;;;;;;4910203;29;20760;-77
2021/04/06 01:05:04;;;;;;;18.60;3.43;;;3.00;99.90;;;;;;4911513;29;20610;-77
2021/04/06 01:07:51;;;;;;;12.57;3.63;;;3.00;99.90;;;;;;4902718;29;20216;-77
2021/04/06 01:10:37;;;;;;;13.37;3.13;;;3.10;99.90;;;;;;4907975;29;20212;-77
2021/04/06 01:13:23;;;;;;;16.73;3.20;;;3.10;99.90;;;;;;4907076;29;20211;-77
2021/04/06 01:16:10;;;;;;;18.27;3.77;;;3.10;99.90;;;;;;4912480;29;20231;-77
2021/04/06 01:18:56;;;;;;;19.83;3.53;;;3.10;99.90;;;;;;4913136;29;20236;-77
2021/04/06 01:21:41;;;;;;;15.53;3.83;;;3.20;99.90;;;;;;4913991;29;20299;-77
2021/04/06 01:24:27;;;;;;;13.20;3.33;;;3.10;99.90;;;;;;4912617;29;20270;-77
2021/04/06 01:27:14;;;;;;;16.90;4.57;;;3.10;99.90;;;;;;4913180;29;20703;-77
2021/04/06 01:29:59;;;;;;;16.87;3.17;;;3.10;99.90;;;;;;4912180;29;20675;-77
2021/04/06 01:32:45;;;;;;;14.77;3.00;;;3.10;99.90;;;;;;4913679;29;20263;-77
2021/04/06 01:35:30;;;;;;;13.70;3.53;;;3.10;99.90;;;;;;4910419;29;20239;-77
2021/04/06 01:38:16;;;;;;;13.20;3.10;;;3.00;99.90;;;;;;4913522;29;20263;-77
2021/04/06 01:41:04;;;;;;;14.57;2.87;;;3.00;99.90;;;;;;4916280;29;20255;-77
2021/04/06 01:43:50;;;;;;;17.70;3.03;;;2.90;99.90;;;;;;4917496;29;20286;-77
2021/04/06 01:46:41;;;;;;;23.57;4.20;;;2.80;99.90;;;;;;4917275;29;20280;-77
2021/04/06 01:49:26;;;;;;;16.30;3.50;;;2.80;99.90;;;;;;4901649;29;20277;-77
2021/04/06 01:52:13;;;;;;;15.30;4.07;;;2.70;99.90;;;;;;4915639;29;20223;-77
2021/04/06 01:55:02;;;;;;;20.37;3.83;;;2.70;99.90;;;;;;4917500;29;20258;-77
2021/04/06 01:57:50;;;;;;;15.97;4.00;;;2.70;99.90;;;;;;4914579;29;20212;-77
2021/04/06 02:00:45;;;;;;;17.00;4.33;;;2.70;99.90;;;;;;4917034;29;20226;-77
2021/04/06 02:03:36;;;;;;;27.27;4.70;;;2.70;99.90;;;;;;4917739;29;20211;-77
2021/04/06 02:06:23;;;;;;;22.73;4.23;;;2.70;99.90;;;;;;4904869;29;20220;-77
2021/04/06 02:09:09;;;;;;;19.57;4.10;;;2.70;99.90;;;;;;4916559;29;20371;-77
2021/04/06 02:11:54;;;;;;;21.57;3.93;;;2.80;99.90;;;;;;4911879;29;20262;-77
2021/04/06 02:14:40;;;;;;;20.03;5.20;;;2.80;99.90;;;;;;4917579;29;20215;-77
2021/04/06 02:17:25;;;;;;;17.27;3.77;;;2.80;99.90;;;;;;4917051;29;20237;-77
2021/04/06 02:20:18;;;;;;;18.07;4.03;;;2.70;99.90;;;;;;4916827;29;20776;-77
2021/04/06 02:23:04;;;;;;;19.90;3.53;;;2.70;99.90;;;;;;4911976;29;20251;-77
2021/04/06 02:25:51;;;;;;;24.37;4.17;;;2.70;99.90;;;;;;4914101;29;20582;-77
2021/04/06 02:28:36;;;;;;;21.87;4.63;;;2.70;99.90;;;;;;4915894;29;20588;-77
2021/04/06 02:31:22;;;;;;;22.93;4.30;;;2.60;99.90;;;;;;4914135;29;20219;-77
2021/04/06 02:34:07;;;;;;;16.13;3.50;;;2.60;99.90;;;;;;4916358;29;20219;-77
2021/04/06 02:36:52;;;;;;;19.73;4.30;;;2.60;99.90;;;;;;4910168;29;20252;-77
2021/04/06 02:39:38;;;;;;;23.03;3.50;;;2.50;99.90;;;;;;4916734;29;20285;-77
2021/04/06 02:42:29;;;;;;;16.53;3.60;;;2.50;99.90;;;;;;4910923;29;20219;-77
2021/04/06 02:45:18;;;;;;;28.63;4.97;;;2.50;99.90;;;;;;4910964;29;20203;-77
2021/04/06 02:48:07;;;;;;;17.33;3.30;;;2.40;99.90;;;;;;4916070;29;20210;-76
2021/04/06 02:50:56;;;;;;;18.50;3.50;;;2.40;99.90;;;;;;4916750;29;20255;-77
2021/04/06 02:53:41;;;;;;;22.33;4.03;;;2.30;99.90;;;;;;4910799;29;20632;-76
2021/04/06 02:56:31;;;;;;;16.77;3.77;;;2.30;99.90;;;;;;4916906;29;20291;-77
2021/04/06 02:59:18;;;;;;;16.43;3.80;;;2.30;99.90;;;;;;4915380;29;20243;-77
2021/04/06 03:02:03;;;;;;;16.03;3.30;;;2.20;99.90;;;;;;4911301;29;20219;-77
2021/04/06 03:04:50;;;;;;;19.67;4.67;;;2.20;99.90;;;;;;4910607;29;20260;-77
2021/04/06 03:07:45;;;;;;;17.43;3.43;;;2.10;99.90;;;;;;4917071;29;20252;-77
2021/04/06 03:10:31;;;;;;;17.43;3.80;;;2.10;99.90;;;;;;4916893;29;20628;-77
2021/04/06 03:13:16;;;;;;;14.53;3.03;;;2.00;99.90;;;;;;4910748;29;20220;-77
2021/04/06 03:16:04;;;;;;;13.63;3.37;;;2.00;99.90;;;;;;4912818;29;20733;-76
2021/04/06 03:18:49;;;;;;;16.10;3.40;;;2.00;99.90;;;;;;4915899;29;20227;-77
2021/04/06 03:21:36;;;;;;;18.90;3.20;;;2.00;99.90;;;;;;4916219;29;20219;-76
2021/04/06 03:24:21;;;;;;;20.93;3.87;;;2.00;99.90;;;;;;4912414;29;20223;-77
2021/04/06 03:27:07;;;;;;;12.53;3.23;;;1.90;99.90;;;;;;4915556;29;20291;-77
2021/04/06 03:29:52;;;;;;;17.93;3.20;;;1.90;99.90;;;;;;4918123;29;20242;-77
2021/04/06 03:32:38;;;;;;;21.97;2.93;;;2.00;99.90;;;;;;4918133;29;20256;-77
2021/04/06 03:35:23;;;;;;;14.30;3.03;;;2.00;99.90;;;;;;4912940;29;20364;-77
2021/04/06 03:38:10;;;;;;;15.57;2.90;;;2.00;99.90;;;;;;4917110;29;20839;-77
2021/04/06 03:40:55;;;;;;;15.10;2.90;;;2.00;99.90;;;;;;4917008;29;20260;-77
2021/04/06 03:43:41;;;;;;;12.10;2.70;;;2.00;99.90;;;;;;4918025;29;20206;-77
2021/04/06 03:46:26;;;;;;;11.57;2.53;;;2.00;99.90;;;;;;4913501;29;20754;-77
2021/04/06 03:49:13;;;;;;;9.60;2.47;;;2.00;99.90;;;;;;4899862;29;20235;-77
2021/04/06 03:51:59;;;;;;;14.00;3.07;;;2.00;99.90;;;;;;4900182;29;20285;-77
2021/04/06 03:54:47;;;;;;;9.50;2.23;;;2.00;99.90;;;;;;4912149;29;20204;-77
2021/04/06 03:57:36;;;;;;;17.07;3.40;;;2.00;99.90;;;;;;4906999;29;20215;-77
2021/04/06 04:00:22;;;;;;;14.50;2.90;;;2.00;99.90;;;;;;4915798;29;20323;-77
2021/04/06 04:03:07;;;;;;;12.00;2.57;;;2.00;99.90;;;;;;4915183;29;20208;-77
2021/04/06 04:05:52;;;;;;;14.93;2.63;;;2.00;99.90;;;;;;4903339;29;20272;-77
2021/04/06 04:08:37;;;;;;;13.53;3.30;;;2.00;99.90;;;;;;4915143;29;20283;-77
2021/04/06 04:11:23;;;;;;;10.00;2.90;;;2.00;99.90;;;;;;4905639;29;20630;-76
2021/04/06 04:14:08;;;;;;;12.47;2.43;;;2.10;99.90;;;;;;4910204;29;20687;-76
2021/04/06 04:16:53;;;;;;;8.13;1.80;;;2.10;99.90;;;;;;4914204;29;20691;-77
2021/04/06 04:19:38;;;;;;;9.40;2.07;;;2.00;99.90;;;;;;4915021;29;20231;-77
2021/04/06 04:22:23;;;;;;;7.93;2.00;;;2.00;99.90;;;;;;4914427;29;20726;-77
2021/04/06 04:25:09;;;;;;;9.40;1.83;;;2.00;99.90;;;;;;4902590;29;20287;-76
2021/04/06 04:27:55;;;;;;;11.77;3.57;;;2.00;99.90;;;;;;4907629;29;20267;-76
2021/04/06 04:30:41;;;;;;;6.83;2.20;;;2.00;99.90;;;;;;4914191;29;20214;-77
2021/04/06 04:33:25;;;;;;;13.87;2.33;;;2.00;99.90;;;;;;4914178;29;20214;-76
2021/04/06 04:36:10;;;;;;;12.80;2.50;;;1.90;99.90;;;;;;4909353;29;20235;-77
2021/04/06 04:38:55;;;;;;;7.33;2.00;;;2.00;99.90;;;;;;4914340;29;20347;-77
2021/04/06 04:41:39;;;;;;;11.47;2.37;;;1.90;99.90;;;;;;4910901;29;20220;-76
2021/04/06 04:44:25;;;;;;;16.67;2.30;;;1.90;99.90;;;;;;4913547;29;20248;-76
2021/04/06 04:47:10;;;;;;;13.10;2.73;;;1.90;99.90;;;;;;4915350;29;20215;-77
2021/04/06 04:49:57;;;;;;;15.43;2.63;;;1.90;99.90;;;;;;4912154;29;20259;-77
2021/04/06 04:52:46;;;;;;;14.83;2.80;;;1.90;99.90;;;;;;4905533;29;20215;-76
2021/04/06 04:55:31;;;;;;;2.63;1.50;;;1.90;99.90;;;;;;4912773;29;20276;-77
2021/04/06 04:58:15;;;;;;;7.70;2.07;;;1.90;99.90;;;;;;4925851;29;20195;-76
2021/04/06 05:01:01;;;;;;;8.63;2.50;;;1.90;99.90;;;;;;4939398;29;20243;-76
2021/04/06 05:03:46;;;;;;;11.17;3.03;;;1.90;99.90;;;;;;4928074;29;20259;-76
2021/04/06 05:06:31;;;;;;;10.43;3.07;;;1.90;99.90;;;;;;4915324;29;20702;-77
2021/04/06 05:09:16;;;;;;;12.53;2.23;;;1.90;99.90;;;;;;4908747;29;20519;-77
2021/04/06 05:12:01;;;;;;;10.93;2.83;;;1.90;99.90;;;;;;4900522;29;20220;-77
2021/04/06 05:14:46;;;;;;;9.93;2.67;;;1.80;99.90;;;;;;4907593;29;20215;-77
2021/04/06 05:17:34;;;;;;;14.13;3.17;;;1.80;99.90;;;;;;4912285;29;20308;-77
2021/04/06 05:20:19;;;;;;;10.47;3.70;;;1.70;99.90;;;;;;4914957;29;20249;-77
2021/04/06 05:23:04;;;;;;;14.43;3.03;;;1.70;99.90;;;;;;4916452;29;20262;-77
2021/04/06 05:25:48;;;;;;;13.27;2.77;;;1.70;99.90;;;;;;4911347;29;20684;-77
2021/04/06 05:28:33;;;;;;;9.43;3.17;;;1.60;99.90;;;;;;4927217;29;20315;-77
2021/04/06 05:31:18;;;;;;;12.40;3.27;;;1.60;99.90;;;;;;4909357;29;20207;-77
2021/04/06 05:34:03;;;;;;;13.87;2.80;;;1.60;99.90;;;;;;4911691;29;20295;-77
2021/04/06 05:36:48;;;;;;;11.00;2.73;;;1.60;99.90;;;;;;4915143;29;20313;-77
2021/04/06 05:39:33;;;;;;;12.33;3.40;;;1.60;99.90;;;;;;4922491;29;20234;-76
2021/04/06 05:42:18;;;;;;;10.70;2.80;;;1.50;99.90;;;;;;4908259;29;20210;-77
2021/04/06 05:45:06;;;;;;;19.93;3.30;;;1.50;99.90;;;;;;4914369;29;20261;-77
2021/04/06 05:47:54;;;;;;;12.13;2.93;;;1.50;99.90;;;;;;4919545;29;20215;-76
2021/04/06 05:50:46;;;;;;;12.73;3.70;;;1.50;99.90;;;;;;4909474;29;20709;-77
2021/04/06 05:53:32;;;;;;;17.57;3.50;;;1.50;99.90;;;;;;4917850;29;20445;-77
2021/04/06 05:56:16;;;;;;;13.83;2.80;;;1.50;99.90;;;;;;4913346;29;20736;-77
2021/04/06 05:59:02;;;;;;;12.33;2.97;;;1.40;99.90;;;;;;4915917;29;20238;-77
2021/04/06 06:01:48;;;;;;;20.03;2.93;;;1.40;99.90;;;;;;4914571;29;20207;-77
2021/04/06 06:04:35;;;;;;;15.97;3.13;;;1.40;99.90;;;;;;4916075;29;20243;-77
2021/04/06 06:07:21;;;;;;;14.57;2.73;;;1.40;99.90;;;;;;4917443;29;20354;-77
2021/04/06 06:10:25;;;;;;;13.70;3.07;;;1.40;99.90;;;;;;4919025;29;20767;-77
2021/04/06 06:13:23;;;;;;;10.63;3.13;;;1.40;99.90;;;;;;4910674;29;20211;-77
2021/04/06 06:16:14;;;;;;;5.93;2.23;;;1.40;99.90;;;;;;4914623;29;20228;-77
2021/04/06 06:19:02;;;;;;;14.40;2.93;;;1.40;99.90;;;;;;4916633;29;20239;-77
2021/04/06 06:21:49;;;;;;;18.97;4.23;;;1.50;99.90;;;;;;4915529;29;20227;-76
2021/04/06 06:24:35;;;;;;;16.03;3.37;;;1.50;99.90;;;;;;4915857;29;20392;-76
2021/04/06 06:27:36;;;;;;;13.67;3.17;;;1.60;99.90;;;;;;4911855;29;20720;-77
2021/04/06 06:30:24;;;;;;;14.00;3.33;;;1.60;99.90;;;;;;4912903;29;20383;-77
2021/04/06 06:33:16;;;;;;;19.23;4.03;;;1.70;99.90;;;;;;4913608;29;20236;-77
2021/04/06 06:36:04;;;;;;;16.33;3.53;;;1.80;99.90;;;;;;4912270;29;20252;-77
2021/04/06 06:38:49;;;;;;;7.37;3.00;;;1.90;99.90;;;;;;4912708;29;20359;-77
2021/04/06 06:41:34;;;;;;;7.97;2.70;;;1.90;99.90;;;;;;4913591;29;20467;-77
2021/04/06 06:44:19;;;;;;;13.07;3.20;;;2.00;99.90;;;;;;4911448;29;20247;-77
2021/04/06 06:47:13;;;;;;;10.20;3.00;;;2.00;99.90;;;;;;4909106;29;20291;-76
2021/04/06 06:50:08;;;;;;;11.60;2.43;;;2.10;99.90;;;;;;4904964;29;20255;-77
2021/04/06 06:52:54;;;;;;;14.13;2.40;;;2.20;99.90;;;;;;4910852;29;20208;-77
2021/04/06 06:55:39;;;;;;;9.20;2.60;;;2.20;99.90;;;;;;4907626;29;20275;-77
2021/04/06 06:58:31;;;;;;;4.03;1.63;;;2.30;99.90;;;;;;4912851;29;20252;-77
2021/04/06 07:01:24;;;;;;;6.43;1.83;;;2.30;99.90;;;;;;4914955;29;20235;-77
2021/04/06 07:04:12;;;;;;;8.53;2.60;;;2.30;99.90;;;;;;4913821;29;20295;-77
2021/04/06 07:06:59;;;;;;;6.23;1.97;;;2.40;99.90;;;;;;4918328;29;20255;-77
2021/04/06 07:09:45;;;;;;;9.63;2.50;;;2.40;99.90;;;;;;4910013;29;20271;-77
2021/04/06 07:12:30;;;;;;;8.43;2.20;;;2.40;99.90;;;;;;4913367;29;20267;-77
2021/04/06 07:15:18;;;;;;;3.70;1.77;;;2.50;99.90;;;;;;4916253;29;20283;-77
2021/04/06 07:18:06;;;;;;;7.03;1.83;;;2.50;99.90;;;;;;4911841;29;20228;-78
2021/04/06 07:20:59;;;;;;;6.80;1.97;;;2.50;99.90;;;;;;4912375;29;20743;-78
2021/04/06 07:23:50;;;;;;;18.77;3.30;;;2.60;99.90;;;;;;4911511;29;20631;-77
2021/04/06 07:26:36;;;;;;;5.30;2.07;;;2.60;99.90;;;;;;4910933;29;20212;-77
2021/04/06 07:29:22;;;;;;;6.50;1.77;;;2.70;99.90;;;;;;4913359;29;20234;-77
2021/04/06 07:32:11;;;;;;;7.60;2.30;;;2.70;99.90;;;;;;4910902;29;20712;-77
2021/04/06 07:34:56;;;;;;;11.43;2.80;;;2.80;99.90;;;;;;4910235;29;20214;-76
2021/04/06 07:37:43;;;;;;;5.80;1.80;;;2.80;99.90;;;;;;4913004;29;20774;-77
2021/04/06 07:40:32;;;;;;;11.07;2.37;;;2.90;99.90;;;;;;4914000;29;20236;-77
2021/04/06 07:43:17;;;;;;;9.40;2.87;;;3.00;99.90;;;;;;4913459;29;20231;-78
2021/04/06 07:46:02;;;;;;;9.27;2.40;;;3.10;99.90;;;;;;4912016;29;20596;-77
2021/04/06 07:48:49;;;;;;;8.03;1.93;;;3.20;99.90;;;;;;4912950;29;20231;-77
2021/04/06 07:51:39;;;;;;;10.53;1.93;;;3.30;99.90;;;;;;4912871;29;20227;-77
2021/04/06 07:54:42;;;;;;;10.60;2.07;;;3.40;99.90;;;;;;4912167;29;20219;-77
2021/04/06 07:57:42;;;;;;;11.60;2.10;;;3.50;99.90;;;;;;4911084;29;20275;-77
2021/04/06 08:00:50;;;;;;;9.20;1.87;;;3.60;99.90;;;;;;4910287;29;20403;-77
2021/04/06 08:04:04;;;;;;;10.00;2.10;;;3.80;99.90;;;;;;4910634;29;20279;-76
2021/04/06 08:06:50;;;;;;;5.90;1.70;;;4.00;99.90;;;;;;4911036;29;20340;-76
2021/04/06 08:09:42;;;;;;;5.63;1.30;;;4.10;99.90;;;;;;4910481;29;20231;-76
2021/04/06 08:12:29;;;;;;;5.47;1.73;;;4.30;99.90;;;;;;4907980;29;20260;-76
2021/04/06 08:15:16;;;;;;;4.00;1.30;;;4.40;99.90;;;;;;4909846;29;20685;-77
2021/04/06 08:18:02;;;;;;;4.90;1.27;;;4.40;99.90;;;;;;4911169;29;20579;-76
2021/04/06 08:20:48;;;;;;;7.60;1.67;;;4.40;99.90;;;;;;4911550;29;20203;-76
2021/04/06 08:23:41;;;;;;;4.83;1.40;;;4.40;99.90;;;;;;4920946;29;20207;-76
2021/04/06 08:26:29;;;;;;;6.50;1.23;;;4.40;99.90;;;;;;4910998;29;20212;-75
2021/04/06 08:29:27;;;;;;;5.00;1.30;;;4.40;99.90;;;;;;4908930;29;20258;-76
2021/04/06 08:32:13;;;;;;;3.93;0.97;;;4.40;99.90;;;;;;4910985;29;20231;-76
2021/04/06 08:34:58;;;;;;;5.37;1.43;;;4.40;99.90;;;;;;4918006;29;20377;-76
2021/04/06 08:37:44;;;;;;;6.43;0.90;;;4.50;99.90;;;;;;4911678;29;20643;-76
2021/04/06 08:40:44;;;;;;;3.40;0.77;;;4.50;99.90;;;;;;4912512;29;20231;-75
2021/04/06 08:43:31;;;;;;;5.73;1.20;;;4.60;99.90;;;;;;4909398;29;20238;-75
2021/04/06 08:46:24;;;;;;;3.47;0.83;;;4.70;99.90;;;;;;4910810;29;20292;-75
2021/04/06 08:49:12;;;;;;;2.77;0.90;;;4.80;99.90;;;;;;4908502;29;20291;-76
2021/04/06 08:51:58;;;;;;;2.83;0.80;;;4.90;99.90;;;;;;4910937;29;20247;-75
2021/04/06 08:54:44;;;;;;;5.90;1.30;;;5.30;99.90;;;;;;4910319;29;20322;-76
2021/04/06 08:57:29;;;;;;;4.47;1.50;;;;;;;;;;4911186;29;20457;-75
2021/04/06 09:00:15;;;;;;;4.77;1.10;;;5.40;99.90;;;;;;4918731;29;20278;-75
2021/04/06 09:03:05;;;;;;;5.17;1.27;;;5.60;99.90;;;;;;4911259;29;20215;-75
2021/04/06 09:05:50;;;;;;;4.80;1.27;;;5.70;99.90;;;;;;4911604;29;20276;-76
2021/04/06 09:08:49;;;;;;;2.93;0.97;;;5.90;99.90;;;;;;4909882;29;20807;-76
2021/04/06 09:11:35;;;;;;;5.13;1.50;;;5.90;99.90;;;;;;4909685;29;20315;-76
2021/04/06 09:14:21;;;;;;;4.13;1.40;;;6.00;99.90;;;;;;4911806;29;20207;-76
2021/04/06 09:17:05;;;;;;;8.67;1.57;;;6.20;99.90;;;;;;4911756;29;20334;-76
2021/04/06 09:19:50;;;;;;;6.50;1.57;;;6.30;99.90;;;;;;4910867;29;20260;-76
2021/04/06 09:22:35;;;;;;;6.00;1.20;;;6.50;99.90;;;;;;4911863;29;20259;-76
2021/04/06 09:25:23;;;;;;;5.37;1.83;;;6.70;99.90;;;;;;4912237;29;20618;-76
2021/04/06 09:28:09;;;;;;;6.30;1.50;;;7.00;99.90;;;;;;4905606;29;20248;-77
2021/04/06 09:30:53;;;;;;;6.27;1.30;;;7.40;99.90;;;;;;4907714;29;20203;-77
2021/04/06 09:33:38;;;;;;;6.40;1.90;;;7.80;99.90;;;;;;4910431;29;20491;-75
2021/04/06 09:36:23;;;;;;;6.10;1.67;;;8.60;99.90;;;;;;4907543;29;20275;-76
2021/04/06 09:39:10;;;;;;;5.53;1.53;;;9.30;99.90;;;;;;4906740;29;20356;-76
2021/04/06 09:41:56;;;;;;;5.17;1.50;;;10.00;99.90;;;;;;4905880;29;20211;-76
2021/04/06 09:44:44;;;;;;;7.80;1.40;;;10.80;99.90;;;;;;4909003;29;20752;-76
2021/04/06 09:47:29;;;;;;;6.43;1.63;;;11.70;99.90;;;;;;4911886;29;20203;-76
2021/04/06 09:50:14;;;;;;;7.03;2.20;;;12.50;99.90;;;;;;4908675;29;20271;-76
2021/04/06 09:52:59;;;;;;;4.60;1.30;;;13.40;99.90;;;;;;4908682;29;20231;-76
2021/04/06 09:55:47;;;;;;;4.10;1.40;;;14.20;99.90;;;;;;4910279;29;20301;-76
2021/04/06 09:58:34;;;;;;;7.60;1.03;;;14.90;99.90;;;;;;4911026;29;20603;-76
2021/04/06 10:01:22;;;;;;;1.87;0.70;;;15.20;99.90;;;;;;4910058;29;20364;-76
2021/04/06 10:04:07;;;;;;;3.13;0.80;;;15.30;99.90;;;;;;4912922;29;20213;-76
2021/04/06 10:07:04;;;;;;;1.77;1.07;;;15.10;99.90;;;;;;4912718;29;20205;-76
2021/04/06 10:09:52;;;;;;;1.73;0.70;;;14.70;97.40;;;;;;4913848;29;20237;-75
2021/04/06 10:12:37;;;;;;;2.00;0.60;;;14.20;98.40;;;;;;4916136;29;20204;-75
2021/04/06 10:15:26;;;;;;;4.13;1.20;;;13.70;98.20;;;;;;4912571;29;20220;-75
2021/04/06 10:18:15;;;;;;;5.27;1.03;;;13.00;99.00;;;;;;4916662;29;20236;-75
2021/04/06 10:21:00;;;;;;;2.50;0.83;;;12.40;99.30;;;;;;4915663;29;20601;-75
2021/04/06 10:23:45;;;;;;;1.27;0.80;;;11.80;99.90;;;;;;4916102;29;20581;-78
2021/04/06 10:26:30;;;;;;;1.97;1.07;;;11.30;99.90;;;;;;4916896;29;20222;-75
2021/04/06 10:29:15;;;;;;;1.63;0.90;;;10.80;99.90;;;;;;4914014;29;20243;-75
2021/04/06 10:32:01;;;;;;;2.27;0.90;;;10.30;99.90;;;;;;4916169;29;20206;-75
2021/04/06 10:34:54;;;;;;;2.20;0.83;;;10.10;99.90;;;;;;4910795;29;20292;-76
2021/04/06 10:37:41;;;;;;;2.50;0.70;;;10.10;99.90;;;;;;4912632;29;20985;-77
2021/04/06 10:40:31;;;;;;;3.23;1.40;;;10.40;99.90;;;;;;4912516;29;20223;-76
2021/04/06 10:43:18;;;;;;;3.93;1.20;;;10.80;99.90;;;;;;4912866;29;20271;-76
2021/04/06 10:46:05;;;;;;;5.63;1.20;;;11.20;99.90;;;;;;4912504;29;20696;-77
2021/04/06 10:48:53;;;;;;;5.17;1.50;;;11.80;99.90;;;;;;4906193;29;20307;-76
2021/04/06 10:51:48;;;;;;;2.77;1.20;;;12.50;99.90;;;;;;4913007;29;20782;-77
2021/04/06 10:54:33;;;;;;;4.93;1.10;;;13.30;99.90;;;;;;4913227;29;20248;-78
2021/04/06 10:57:27;;;;;;;5.17;0.80;;;14.20;99.90;;;;;;4912026;29;20648;-77
2021/04/06 11:00:17;;;;;;;2.03;0.70;;;14.90;98.50;;;;;;4913577;29;20232;-76
2021/04/06 11:03:14;;;;;;;1.93;0.90;;;15.30;95.00;;;;;;4912126;29;20686;-77
2021/04/06 11:06:08;;;;;;;3.07;1.00;;;15.20;95.80;;;;;;4912240;29;20200;-76
2021/04/06 11:08:56;;;;;;;1.97;1.10;;;14.70;95.40;;;;;;4907749;29;21365;-76
2021/04/06 11:11:41;;;;;;;3.90;1.00;;;14.30;94.70;;;;;;4911333;29;20285;-76
2021/04/06 11:14:28;;;;;;;3.87;1.10;;;13.90;95.30;;;;;;4911738;29;20243;-76
2021/04/06 11:17:14;;;;;;;5.90;1.67;;;13.50;95.40;;;;;;4910559;29;20730;-76
2021/04/06 11:19:59;;;;;;;4.93;1.60;;;13.10;97.10;;;;;;4911859;29;20267;-76
2021/04/06 11:22:44;;;;;;;2.60;1.73;;;12.70;99.00;;;;;;4910887;29;20219;-76
2021/04/06 11:25:29;;;;;;;10.20;1.70;;;12.50;99.90;;;;;;4909797;29;20703;-76
2021/04/06 11:28:14;;;;;;;4.87;1.60;;;12.40;99.90;;;;;;4908641;29;20267;-77
2021/04/06 11:30:59;;;;;;;3.90;1.00;;;12.60;99.90;;;;;;4910441;29;20208;-77
2021/04/06 11:33:44;;;;;;;5.00;1.37;;;12.90;99.90;;;;;;4911651;29;20266;-77
2021/04/06 11:36:30;;;;;;;4.70;1.10;;;13.30;99.50;;;;;;4910131;29;20252;-77
2021/04/06 11:39:16;;;;;;;2.80;1.20;;;13.80;99.90;;;;;;4910536;29;20304;-77
2021/04/06 11:42:04;;;;;;;3.73;1.20;;;14.40;96.40;;;;;;4912118;29;20229;-77
2021/04/06 11:44:49;;;;;;;4.40;1.20;;;15.00;95.60;;;;;;4910309;29;20277;-77
2021/04/06 11:47:34;;;;;;;5.37;1.80;;;15.50;96.10;;;;;;4910830;29;20578;-77
2021/04/06 11:50:20;;;;;;;3.77;1.27;;;16.00;92.00;;;;;;4912291;29;20267;-76
2021/04/06 11:53:05;;;;;;;3.83;1.20;;;16.30;92.00;;;;;;4911726;29;20210;-76
2021/04/06 11:55:50;;;;;;;4.70;1.53;;;16.60;90.20;;;;;;4923165;29;20227;-76
2021/04/06 11:58:35;;;;;;;3.67;1.30;;;16.70;90.00;;;;;;4922957;29;20688;-76
2021/04/06 12:01:20;;;;;;;2.00;0.80;;;16.60;89.10;;;;;;4929052;29;20216;-76
2021/04/06 12:04:06;;;;;;;1.23;0.80;;;16.50;87.80;;;;;;4930105;29;20236;-76
2021/04/06 12:06:51;;;;;;;2.30;0.90;;;16.20;86.70;;;;;;4925274;29;20222;-76
2021/04/06 12:09:36;;;;;;;3.03;0.73;;;15.80;85.90;;;;;;4917550;29;20290;-76
2021/04/06 12:12:21;;;;;;;1.50;0.80;;;15.30;88.10;;;;;;4915897;29;20269;-77
2021/04/06 12:15:07;;;;;;;1.90;0.83;;;14.60;89.00;;;;;;4913767;29;20293;-78
2021/04/06 12:17:53;;;;;;;2.03;0.80;;;14.00;90.30;;;;;;4912864;29;20788;-77
2021/04/06 12:20:38;;;;;;;3.43;0.80;;;13.40;90.40;;;;;;4913046;29;20305;-76
2021/04/06 12:23:23;;;;;;;4.67;1.40;;;12.90;91.50;;;;;;4912646;29;20207;-77
2021/04/06 12:26:08;;;;;;;1.67;0.70;;;12.50;92.00;;;;;;4908206;29;20248;-77
2021/04/06 12:28:53;;;;;;;1.53;0.83;;;12.10;93.20;;;;;;4911032;29;20232;-77
2021/04/06 12:31:38;;;;;;;3.90;1.13;;;11.70;94.10;;;;;;4910505;29;20255;-77
2021/04/06 12:34:23;;;;;;;6.87;1.30;;;11.40;95.00;;;;;;4910545;29;20220;-77
2021/04/06 12:37:08;;;;;;;3.80;1.60;;;11.10;95.60;;;;;;4904216;29;20232;-77
2021/04/06 12:39:53;;;;;;;4.17;1.60;;;10.80;96.00;;;;;;4912784;29;20526;-77
2021/04/06 12:42:39;;;;;;;3.27;1.50;;;10.60;96.90;;;;;;4908668;29;20639;-77
2021/04/06 12:45:24;;;;;;;5.63;1.70;;;10.60;98.00;;;;;;4910883;29;20288;-77
2021/04/06 12:48:10;;;;;;;6.53;1.50;;;10.50;98.60;;;;;;4909641;29;20714;-78
2021/04/06 12:50:55;;;;;;;4.00;1.53;;;10.50;99.90;;;;;;4908265;29;20215;-77
2021/04/06 12:53:39;;;;;;;4.33;1.83;;;10.70;99.90;;;;;;4906089;29;20210;-77
2021/04/06 12:56:25;;;;;;;5.47;1.50;;;11.00;99.90;;;;;;4909379;29;20219;-77
2021/04/06 12:59:09;;;;;;;2.63;1.43;;;11.40;99.90;;;;;;4906326;29;20305;-77
2021/04/06 13:01:54;;;;;;;4.10;1.30;;;12.00;99.00;;;;;;4909674;29;20289;-78
2021/04/06 13:04:40;;;;;;;3.93;1.20;;;12.60;96.30;;;;;;4910566;29;20226;-78
2021/04/06 13:07:25;;;;;;;2.10;1.10;;;13.30;94.20;;;;;;4906057;29;20563;-77
2021/04/06 13:10:11;;;;;;;1.27;0.90;;;13.90;92.90;;;;;;4896791;29;20588;-78
2021/04/06 13:12:56;;;;;;;2.40;0.73;;;14.30;92.90;;;;;;4894098;29;20233;-77
2021/04/06 13:15:41;;;;;;;8.70;1.20;;;14.50;91.00;;;;;;4890236;29;20580;-77
2021/04/06 13:18:26;;;;;;;1.40;1.00;;;14.30;91.40;;;;;;4885420;29;20304;-77
2021/04/06 13:21:12;;;;;;;1.30;0.70;;;13.90;91.70;;;;;;4886804;29;20779;-77
2021/04/06 13:23:56;;;;;;;3.03;1.10;;;13.60;91.40;;;;;;4889089;29;20220;-77
2021/04/06 13:26:42;;;;;;;2.97;0.77;;;13.20;91.70;;;;;;4889241;29;20249;-76
2021/04/06 13:29:26;;;;;;;5.80;1.00;;;12.90;91.20;;;;;;4895078;29;20608;-76
2021/04/06 13:32:11;;;;;;;1.43;1.07;;;12.50;91.10;;;;;;4891308;29;20223;-76
2021/04/06 13:34:56;;;;;;;5.87;1.30;;;12.10;91.20;;;;;;4890952;29;20204;-76
2021/04/06 13:37:43;;;;;;;3.60;1.40;;;11.70;91.20;;;;;;4894259;29;20320;-76
2021/04/06 13:40:28;;;;;;;3.33;1.17;;;11.40;91.80;;;;;;4896614;29;20316;-76
2021/04/06 13:43:13;;;;;;;6.33;1.43;;;11.00;92.50;;;;;;4900227;29;20215;-76
2021/04/06 13:45:58;;;;;;;6.30;1.60;;;10.60;93.60;;;;;;4893821;29;20626;-76
2021/04/06 13:48:42;;;;;;;5.53;1.60;;;10.20;94.30;;;;;;4895669;29;20232;-76
2021/04/06 13:51:27;;;;;;;7.33;1.80;;;9.90;94.60;;;;;;4895028;29;20208;-76
2021/04/06 13:54:13;;;;;;;6.10;1.63;;;9.60;95.80;;;;;;4895795;29;20211;-76
2021/04/06 13:56:58;;;;;;;7.13;1.97;;;9.30;96.80;;;;;;4896047;29;20795;-76
2021/04/06 13:59:42;;;;;;;7.50;1.90;;;9.10;98.00;;;;;;4895054;29;20826;-76
2021/04/06 14:02:27;;;;;;;5.43;1.50;;;8.80;99.90;;;;;;4895290;29;20216;-76
2021/04/06 14:05:13;;;;;;;6.30;1.43;;;8.70;99.90;;;;;;4894525;29;20219;-76
2021/04/06 14:07:59;;;;;;;7.00;1.70;;;8.80;99.90;;;;;;4894852;29;20824;-76
2021/04/06 14:10:46;;;;;;;4.77;1.53;;;9.00;99.90;;;;;;4913404;29;20268;-76
2021/04/06 14:13:31;;;;;;;6.77;1.80;;;9.20;99.90;;;;;;4912785;29;20271;-76
2021/04/06 14:16:16;;;;;;;6.30;1.77;;;9.40;99.90;;;;;;4912968;29;20210;-76
2021/04/06 14:19:01;;;;;;;4.40;1.47;;;9.60;99.90;;;;;;4911437;29;20279;-76
2021/04/06 14:21:46;;;;;;;5.80;1.50;;;9.80;99.90;;;;;;4912511;29;20218;-77
2021/04/06 14:24:30;;;;;;;7.17;1.83;;;9.90;99.90;;;;;;4909177;29;20331;-77
2021/04/06 14:27:17;;;;;;;4.60;1.60;;;10.00;99.90;;;;;;4913031;29;20215;-76
2021/04/06 14:30:02;;;;;;;5.57;1.57;;;10.00;99.90;;;;;;4913745;29;20275;-77
2021/04/06 14:32:47;;;;;;;5.30;1.23;;;10.00;99.90;;;;;;4912567;29;20207;-77